This is the latest recevied weather packets stored in our database for station/object K8FJG-13. If no packets are shown the sender has not sent any weather packets the latest 10 day(s).
| Time | Temp. | Humidity | Pressure | Rain* | Wind** | Luminosity | Snow |
|---|---|---|---|---|---|---|---|
| 1787450090 | 16.67° C | 98% | 966.4 hPa | - | - | - | - |
| 1787449487 | 16.67° C | 98% | 966.4 hPa | - | - | - | - |
| 1787448883 | 16.11° C | 98% | 966.3 hPa | - | - | - | - |
| 1787448280 | 16.11° C | 98% | 966.3 hPa | - | - | - | - |
| 1787447677 | 16.11° C | 98% | 966.2 hPa | - | - | - | - |
| 1787447074 | 16.11° C | 98% | 966.1 hPa | - | - | - | - |
| 1787446471 | 16.11° C | 97% | 966 hPa | - | - | - | - |
| 1787445868 | 16.67° C | 97% | 966 hPa | - | - | - | - |
| 1787445265 | 16.67° C | 97% | 965.7 hPa | - | - | - | - |
| 1787444662 | 16.67° C | 97% | 965.6 hPa | - | - | - | - |
| 1787444059 | 16.67° C | 97% | 965.8 hPa | - | - | - | - |
| 1787443456 | 16.67° C | 97% | 966 hPa | - | - | - | - |
| 1787442853 | 16.67° C | 97% | 965.9 hPa | - | - | - | - |
| 1787442250 | 16.67° C | 97% | 965.8 hPa | - | - | - | - |
| 1787441646 | 17.22° C | 97% | 965.7 hPa | - | - | - | - |
| 1787441043 | 17.22° C | 96% | 965.4 hPa | - | - | - | - |
| 1787440440 | 17.22° C | 96% | 964.6 hPa | - | - | - | - |
| 1787439837 | 17.78° C | 96% | 964.4 hPa | - | - | - | - |
| 1787439234 | 17.78° C | 96% | 964.4 hPa | - | - | - | - |
| 1787438631 | 18.33° C | 95% | 965.1 hPa | - | - | - | - |
| 1787438028 | 18.89° C | 94% | 965.5 hPa | - | - | - | - |
| 1787437425 | 20° C | 93% | 966.2 hPa | - | - | - | - |
| 1787436821 | 20.56° C | 93% | 966.4 hPa | - | - | - | - |
| 1787436218 | 20.56° C | 91% | 965.7 hPa | - | - | - | - |
| 1787435615 | 20.56° C | 89% | 966 hPa | - | - | - | - |
* Rain since midnight (hover to see other rain measurements)
** Current wind speed in m/s (hover to see current wind gust speed)